MDT,Max TemperatureF,Mean TemperatureF,Min TemperatureF,Max Dew PointF,MeanDew PointF,Min DewpointF,Max Humidity, Mean Humidity, Min Humidity, Max Sea Level PressureIn, Mean Sea Level PressureIn, Min Sea Level PressureIn, Max VisibilityMiles, Mean VisibilityMiles, Min VisibilityMiles, Max Wind SpeedMPH, Mean Wind SpeedMPH, Max Gust SpeedMPH,PrecipitationIn, CloudCover, Events, WindDirDegrees
2012-9-1,85,69,52,53,49,44,96,62,28,30.13,30.01,29.90,10,10,9,31,8,41,T,1,Rain-Thunderstorm,48
2012-9-2,83,69,54,50,47,43,77,52,26,30.11,30.03,29.96,10,10,10,17,6,22,0.00,1,,223
2012-9-3,87,69,50,47,42,29,74,47,19,30.21,30.04,29.96,10,10,9,32,5,44,0.00,0,,75
2012-9-4,89,70,50,41,32,24,64,37,10,30.12,30.01,29.90,10,10,10,26,6,32,0.00,0,,161
2012-9-5,88,67,46,33,24,14,44,26,8,30.11,29.99,29.89,10,10,10,15,4,21,0.00,0,,68
2012-9-6,88,67,46,46,28,21,45,28,11,30.14,29.96,29.85,10,10,10,36,6,48,0.03,2,Rain,290
2012-9-7,82,68,54,54,43,26,93,54,14,30.17,30.07,30.01,10,10,8,17,5,24,0.05,2,Rain,298
2012-9-8,85,64,42,37,29,18,70,41,11,30.25,30.14,30.03,10,10,10,12,2,15,0.00,0,,65
2012-9-9,86,66,45,38,29,24,45,29,12,30.19,30.07,29.94,10,10,10,21,5,25,0.00,0,,270
2012-9-10,86,67,48,37,34,28,56,34,12,30.13,29.96,29.84,10,10,2,22,5,26,0.00,0,,261
2012-9-11,75,65,55,56,47,37,87,62,37,30.07,29.93,29.86,10,10,7,30,4,40,0.09,6,Rain-Thunderstorm,22
2012-9-12,77,62,46,56,45,22,93,53,12,30.22,30.05,29.96,10,10,9,17,3,22,T,3,,300
2012-9-13,80,59,37,36,29,24,70,42,13,30.37,30.27,30.18,10,10,10,9,3,15,0.00,0,,53
2012-9-14,84,62,40,34,25,21,49,30,10,30.36,30.23,30.09,10,10,10,14,3,16,0.00,0,,311
2012-9-15,85,64,42,32,26,22,46,28,10,30.27,30.14,30.01,10,10,10,14,4,17,0.00,0,,261
2012-9-16,85,63,41,31,23,19,45,27,9,30.15,30.01,29.90,10,10,10,20,5,25,0.00,0,,219
2012-9-17,79,65,50,38,28,21,47,30,12,30.06,29.97,29.88,10,10,10,20,6,25,T,1,,83
2012-9-18,81,61,40,30,25,19,55,34,12,30.22,30.10,30.01,10,10,10,13,4,16,0.00,0,,21
2012-9-19,83,62,41,29,22,15,45,27,9,30.20,30.10,30.00,10,10,10,13,5,17,0.00,0,,240
2012-9-20,84,62,40,28,21,17,45,27,9,30.15,30.06,29.96,10,10,10,13,4,16,0.00,0,,305
2012-9-21,84,63,41,30,23,20,45,28,10,30.17,30.07,29.96,10,10,9,9,2,13,0.00,0,,290
2012-9-22,85,64,42,29,22,17,43,26,8,30.17,30.08,29.99,10,10,10,23,5,31,0.00,0,,260
2012-9-23,84,63,42,35,27,19,39,27,15,30.19,30.08,30.00,10,10,10,25,5,31,0.00,0,,206
2012-9-24,75,64,52,51,45,35,93,60,27,30.12,30.01,29.83,10,10,4,24,9,39,0.18,4,Rain,86
2012-9-25,63,55,46,49,47,43,93,71,48,30.06,29.97,29.89,10,10,7,21,4,25,0.08,6,Rain,74
2012-9-26,61,53,44,47,44,42,93,77,61,30.15,30.09,30.01,10,10,9,15,4,18,0.05,7,Rain,136
2012-9-27,69,57,44,46,43,37,100,66,32,30.28,30.17,30.07,10,7,0,10,2,12,0.00,6,Fog,218
2012-9-28,76,57,38,40,36,28,89,54,18,30.22,30.09,29.96,10,10,10,8,2,9,0.00,0,,94
2012-9-29,77,58,39,37,35,32,79,49,19,30.18,30.08,29.99,10,10,10,20,5,25,0.00,0,,256
2012-9-30,78,59,39,36,32,27,70,43,16,30.21,30.13,30.05,10,10,10,18,4,24,0.00,0,,318